Time;durP1;ratioP1;P1;durP2;ratioP2;P2;SDS_P1;SDS_P2;PMS_P1;PMS_P2;Temp;Humidity;BMP_temperature;BMP_pressure;BME280_temperature;BME280_humidity;BME280_pressure;Samples;Min_cycle;Max_cycle;Signal;HPM_P1;HPM_P2
2022/08/10 00:01:37;;;;;;;6.22;4.43;;;16.70;99.90;;;;;;5012827;28;20048;-63
2022/08/10 00:04:03;;;;;;;6.53;4.50;;;16.70;99.90;;;;;;5011852;28;20049;-62
2022/08/10 00:06:28;;;;;;;6.20;5.28;;;16.60;99.90;;;;;;5012655;28;20503;-63
2022/08/10 00:08:54;;;;;;;7.22;5.22;;;16.60;99.90;;;;;;5013070;28;20064;-62
2022/08/10 00:11:20;;;;;;;6.45;4.90;;;16.60;99.90;;;;;;5012471;28;20464;-62
2022/08/10 00:13:46;;;;;;;9.07;5.55;;;16.50;99.90;;;;;;5012835;28;20365;-63
2022/08/10 00:16:12;;;;;;;8.05;5.65;;;16.50;99.90;;;;;;5011560;28;20050;-65
2022/08/10 00:18:38;;;;;;;10.63;5.65;;;16.50;99.90;;;;;;5011616;28;20074;-62
2022/08/10 00:21:06;;;;;;;6.75;5.20;;;16.50;99.90;;;;;;5012966;28;20514;-62
2022/08/10 00:23:32;;;;;;;7.70;5.13;;;16.40;99.90;;;;;;5012223;28;20077;-62
2022/08/10 00:25:58;;;;;;;7.97;5.25;;;16.40;99.90;;;;;;5027868;28;20104;-62
2022/08/10 00:28:24;;;;;;;7.60;5.63;;;16.40;99.90;;;;;;5043858;28;20050;-62
2022/08/10 00:30:49;;;;;;;6.07;5.45;;;16.40;99.90;;;;;;5012541;28;20467;-63
2022/08/10 00:33:15;;;;;;;6.80;5.75;;;16.30;99.90;;;;;;5011224;28;20064;-62
2022/08/10 00:35:41;;;;;;;9.10;5.90;;;16.30;99.90;;;;;;5012484;28;20056;-62
2022/08/10 00:38:07;;;;;;;7.93;5.65;;;16.20;99.90;;;;;;5012740;28;20128;-62
2022/08/10 00:40:32;;;;;;;6.72;5.50;;;16.20;99.90;;;;;;5010849;28;20060;-62
2022/08/10 00:42:58;;;;;;;6.88;5.65;;;16.20;99.90;;;;;;5012387;28;20042;-62
2022/08/10 00:45:24;;;;;;;6.35;5.50;;;16.20;99.90;;;;;;5011961;28;20151;-62
2022/08/10 00:47:50;;;;;;;7.72;5.90;;;16.20;99.90;;;;;;5012041;28;20053;-62
2022/08/10 00:50:17;;;;;;;6.70;5.50;;;16.20;99.90;;;;;;5012158;28;20361;-62
2022/08/10 00:52:45;;;;;;;6.82;5.60;;;16.20;99.90;;;;;;5043812;28;20037;-62
2022/08/10 00:55:11;;;;;;;7.32;5.95;;;16.10;99.90;;;;;;5012150;28;20455;-62
2022/08/10 00:57:38;;;;;;;8.50;6.13;;;16.10;99.90;;;;;;5011672;28;20053;-62
2022/08/10 01:00:06;;;;;;;6.68;5.97;;;16.10;99.90;;;;;;5011982;28;20464;-62
2022/08/10 01:02:32;;;;;;;7.10;5.70;;;16.10;99.90;;;;;;5011685;28;20465;-62
2022/08/10 01:05:04;;;;;;;9.07;5.72;;;16.10;99.90;;;;;;5012087;28;20042;-62
2022/08/10 01:08:09;;;;;;;7.28;5.57;;;16.00;99.90;;;;;;5010271;28;20061;-62
2022/08/10 01:10:46;;;;;;;7.57;5.78;;;16.00;99.90;;;;;;5010290;28;20057;-62
2022/08/10 01:13:31;;;;;;;6.55;5.72;;;16.00;99.90;;;;;;4994641;28;20135;-62
2022/08/10 01:16:29;;;;;;;7.32;6.18;;;15.90;99.90;;;;;;5011960;28;20049;-62
2022/08/10 01:18:58;;;;;;;8.05;6.10;;;15.90;99.90;;;;;;5011535;28;20045;-65
2022/08/10 01:21:52;;;;;;;6.18;5.57;;;15.90;99.90;;;;;;5011484;28;20049;-62
2022/08/10 01:25:23;;;;;;;9.73;6.20;;;15.90;99.90;;;;;;5011976;28;20042;-62
2022/08/10 01:28:13;;;;;;;9.20;6.75;;;15.90;99.90;;;;;;4980223;28;20088;-62
2022/08/10 01:30:41;;;;;;;8.75;6.45;;;15.80;99.90;;;;;;5011504;28;20111;-62
2022/08/10 01:33:28;;;;;;;9.82;6.65;;;15.80;99.90;;;;;;5043678;28;20136;-62
2022/08/10 01:36:06;;;;;;;8.88;6.68;;;15.80;99.90;;;;;;5010663;28;20042;-62
2022/08/10 01:38:41;;;;;;;7.63;6.03;;;15.80;99.90;;;;;;5010347;28;20168;-62
2022/08/10 01:41:11;;;;;;;6.95;5.93;;;15.80;99.90;;;;;;5011631;28;20094;-62
2022/08/10 01:43:42;;;;;;;6.40;5.45;;;15.70;99.90;;;;;;5010024;28;20548;-62
2022/08/10 01:46:10;;;;;;;8.65;5.53;;;15.70;99.90;;;;;;5011637;28;20050;-63
2022/08/10 01:48:42;;;;;;;6.07;4.90;;;15.70;99.90;;;;;;5042669;28;20191;-62
2022/08/10 01:51:12;;;;;;;6.32;5.00;;;15.60;99.90;;;;;;5009754;28;20050;-62
2022/08/10 01:53:50;;;;;;;6.20;4.60;;;15.60;99.90;;;;;;5012866;28;20487;-61
2022/08/10 01:56:18;;;;;;;5.93;5.10;;;15.60;99.90;;;;;;5015380;28;20045;-61
2022/08/10 01:58:49;;;;;;;5.55;4.60;;;15.70;99.90;;;;;;5013864;28;20483;-62
2022/08/10 02:01:18;;;;;;;6.63;4.63;;;15.60;99.90;;;;;;4997929;28;20053;-61
2022/08/10 02:03:50;;;;;;;6.15;4.57;;;15.60;99.90;;;;;;5013552;28;20092;-62
2022/08/10 02:06:17;;;;;;;5.82;4.32;;;15.60;99.90;;;;;;5014977;28;20050;-62
2022/08/10 02:08:46;;;;;;;6.18;4.90;;;15.50;99.90;;;;;;5013910;28;20452;-61
2022/08/10 02:11:13;;;;;;;5.85;4.97;;;15.50;99.90;;;;;;5014992;28;20216;-61
2022/08/10 02:13:41;;;;;;;6.68;5.22;;;15.50;99.90;;;;;;4997168;28;20053;-61
2022/08/10 02:16:08;;;;;;;7.15;5.57;;;15.50;99.90;;;;;;5014909;28;20186;-61
2022/08/10 02:18:34;;;;;;;6.97;5.43;;;15.50;99.90;;;;;;5014889;28;20053;-61
2022/08/10 02:21:05;;;;;;;6.80;5.22;;;15.50;99.90;;;;;;5014915;28;20042;-61
2022/08/10 02:23:34;;;;;;;6.55;5.20;;;15.50;99.90;;;;;;5013715;28;20042;-62
2022/08/10 02:26:02;;;;;;;7.10;5.80;;;15.50;99.90;;;;;;5014817;28;20038;-61
2022/08/10 02:28:32;;;;;;;8.00;5.22;;;15.60;99.90;;;;;;5014740;28;20404;-61
2022/08/10 02:31:03;;;;;;;8.48;5.85;;;15.50;99.90;;;;;;5014834;28;20124;-62
2022/08/10 02:33:30;;;;;;;8.68;6.05;;;15.50;99.90;;;;;;5014761;28;20392;-62
2022/08/10 02:35:59;;;;;;;7.65;5.65;;;15.50;99.90;;;;;;5014440;28;20050;-62
2022/08/10 02:38:32;;;;;;;7.82;6.63;;;15.50;99.90;;;;;;5013250;28;20042;-62
2022/08/10 02:41:07;;;;;;;9.43;6.70;;;15.50;99.90;;;;;;5014353;28;20061;-62
2022/08/10 02:43:48;;;;;;;8.68;5.93;;;15.60;99.90;;;;;;5014476;28;20072;-62
2022/08/10 02:46:24;;;;;;;8.20;6.03;;;15.60;99.90;;;;;;5014442;28;20499;-62
2022/08/10 02:49:03;;;;;;;8.25;5.70;;;15.60;99.90;;;;;;5013903;28;20097;-62
2022/08/10 02:51:55;;;;;;;8.82;6.05;;;15.50;99.90;;;;;;5014387;28;20054;-62
2022/08/10 02:54:25;;;;;;;8.70;5.85;;;15.50;99.90;;;;;;5013658;28;20368;-62
2022/08/10 02:57:01;;;;;;;8.38;6.60;;;15.50;99.90;;;;;;5013964;28;20049;-62
2022/08/10 02:59:32;;;;;;;9.98;6.60;;;15.50;99.90;;;;;;5012966;28;20052;-62
2022/08/10 03:02:02;;;;;;;8.07;6.85;;;15.50;99.90;;;;;;5013934;28;20119;-62
2022/08/10 03:04:34;;;;;;;7.68;6.32;;;15.40;99.90;;;;;;5011952;28;20093;-62
2022/08/10 03:07:04;;;;;;;9.23;6.72;;;15.40;99.90;;;;;;5012504;28;20045;-62
2022/08/10 03:09:33;;;;;;;8.43;6.55;;;15.30;99.90;;;;;;5014056;28;20101;-62
2022/08/10 03:12:00;;;;;;;7.93;6.03;;;15.30;99.90;;;;;;5013861;28;20050;-62
2022/08/10 03:14:27;;;;;;;6.70;5.63;;;15.30;99.90;;;;;;5012835;28;20123;-62
2022/08/10 03:16:54;;;;;;;6.22;5.40;;;15.20;99.90;;;;;;5013726;28;20045;-62
2022/08/10 03:19:22;;;;;;;7.75;5.95;;;15.20;99.90;;;;;;5013848;28;20046;-61
2022/08/10 03:21:50;;;;;;;7.72;5.38;;;15.20;99.90;;;;;;5013605;28;20095;-62
2022/08/10 03:24:21;;;;;;;9.50;5.68;;;15.20;99.90;;;;;;5013824;28;20053;-62
2022/08/10 03:26:49;;;;;;;8.55;5.97;;;15.20;99.90;;;;;;5013350;28;20045;-62
2022/08/10 03:29:17;;;;;;;7.30;6.40;;;15.20;99.90;;;;;;5045388;28;20113;-62
2022/08/10 03:31:44;;;;;;;8.02;5.95;;;15.20;99.90;;;;;;5013395;28;20058;-62
2022/08/10 03:34:11;;;;;;;8.48;5.82;;;15.20;99.90;;;;;;5013679;28;20050;-62
2022/08/10 03:36:36;;;;;;;7.07;5.53;;;15.10;99.90;;;;;;5013465;28;20048;-62
2022/08/10 03:39:02;;;;;;;8.45;5.65;;;15.10;99.90;;;;;;5012222;28;20420;-62
2022/08/10 03:41:35;;;;;;;7.15;5.60;;;15.10;99.90;;;;;;5012518;28;20404;-62
2022/08/10 03:44:02;;;;;;;7.28;5.43;;;15.10;99.90;;;;;;5013190;28;20042;-62
2022/08/10 03:46:30;;;;;;;7.68;6.03;;;15.10;99.90;;;;;;5028951;28;20451;-62
2022/08/10 03:48:59;;;;;;;8.35;6.07;;;15.10;99.90;;;;;;5028234;28;20057;-62
2022/08/10 03:51:25;;;;;;;9.48;6.45;;;15.10;99.90;;;;;;5013352;28;20124;-62
2022/08/10 03:53:52;;;;;;;8.68;6.15;;;15.10;99.90;;;;;;5012937;28;20075;-62
2022/08/10 03:56:18;;;;;;;8.13;6.10;;;15.10;99.90;;;;;;5045036;28;20053;-62
2022/08/10 03:58:44;;;;;;;8.88;6.60;;;15.10;99.90;;;;;;5012988;28;20048;-62
2022/08/10 04:01:11;;;;;;;9.20;7.78;;;15.10;99.90;;;;;;5013189;28;20093;-63
2022/08/10 04:03:37;;;;;;;9.50;6.70;;;15.10;99.90;;;;;;5011594;28;20045;-62
2022/08/10 04:06:03;;;;;;;8.30;6.28;;;15.10;99.90;;;;;;5012393;28;20057;-62
2022/08/10 04:08:28;;;;;;;10.27;7.07;;;15.10;99.90;;;;;;5011683;28;20550;-62
2022/08/10 04:10:54;;;;;;;8.90;7.25;;;15.10;99.90;;;;;;5044253;28;20492;-62
2022/08/10 04:13:21;;;;;;;9.25;7.22;;;15.10;99.90;;;;;;5012807;28;20038;-62
2022/08/10 04:15:48;;;;;;;8.43;7.13;;;15.10;99.90;;;;;;5011420;28;20042;-62
2022/08/10 04:18:14;;;;;;;12.20;7.35;;;15.10;99.90;;;;;;5012918;28;20184;-62
2022/08/10 04:20:57;;;;;;;10.15;8.20;;;15.20;99.90;;;;;;5011485;28;20133;-62
2022/08/10 04:23:27;;;;;;;11.75;7.78;;;15.20;99.90;;;;;;5011382;28;20124;-61
2022/08/10 04:25:53;;;;;;;13.80;7.90;;;15.20;99.90;;;;;;5011103;28;20054;-62
2022/08/10 04:28:20;;;;;;;11.13;7.38;;;15.20;99.90;;;;;;5044334;28;20061;-62
2022/08/10 04:30:47;;;;;;;9.57;7.93;;;15.30;99.90;;;;;;5012365;28;20147;-62
2022/08/10 04:33:17;;;;;;;11.02;8.60;;;15.30;99.90;;;;;;5012327;28;20403;-62
2022/08/10 04:35:45;;;;;;;10.95;8.25;;;15.30;99.90;;;;;;5044056;28;20411;-62
2022/08/10 04:38:12;;;;;;;12.20;8.68;;;15.40;99.90;;;;;;5010802;28;20488;-62
2022/08/10 04:40:38;;;;;;;10.40;8.75;;;15.40;99.90;;;;;;5012043;28;20407;-62
2022/08/10 04:43:05;;;;;;;10.38;7.80;;;15.40;99.90;;;;;;5043562;28;20092;-62
2022/08/10 04:45:32;;;;;;;10.00;8.25;;;15.50;99.90;;;;;;5011083;28;20085;-62
2022/08/10 04:47:57;;;;;;;9.45;7.53;;;15.40;99.90;;;;;;5011409;28;20058;-63
2022/08/10 04:50:23;;;;;;;12.43;8.50;;;15.50;99.90;;;;;;5012064;28;20069;-63
2022/08/10 04:52:49;;;;;;;10.88;8.77;;;15.50;99.90;;;;;;5012186;28;20153;-62
2022/08/10 04:55:15;;;;;;;10.10;8.55;;;15.60;99.90;;;;;;5011667;28;20132;-63
2022/08/10 04:57:40;;;;;;;9.85;7.75;;;15.60;99.90;;;;;;5011728;28;20514;-63
2022/08/10 05:00:08;;;;;;;11.35;8.18;;;15.70;99.90;;;;;;5011062;28;20050;-62
2022/08/10 05:02:34;;;;;;;10.95;7.95;;;15.70;99.90;;;;;;5027183;28;20105;-62
2022/08/10 05:05:00;;;;;;;8.75;7.85;;;15.80;99.90;;;;;;5011613;28;20054;-62
2022/08/10 05:07:26;;;;;;;11.93;8.90;;;15.80;99.90;;;;;;5043246;28;20056;-63
2022/08/10 05:09:55;;;;;;;9.55;7.45;;;15.80;99.90;;;;;;5011764;28;20068;-63
2022/08/10 05:12:21;;;;;;;11.13;8.52;;;15.90;99.90;;;;;;5011752;28;20064;-64
2022/08/10 05:14:47;;;;;;;10.52;8.20;;;16.00;99.90;;;;;;5011582;28;20053;-62
2022/08/10 05:17:13;;;;;;;11.77;7.68;;;16.10;99.90;;;;;;5011590;28;20137;-62
2022/08/10 05:19:38;;;;;;;12.70;9.15;;;16.40;99.90;;;;;;5010557;28;20057;-62
2022/08/10 05:22:04;;;;;;;12.20;8.15;;;16.60;99.90;;;;;;5011458;28;20424;-62
2022/08/10 05:24:30;;;;;;;10.05;8.23;;;16.70;99.90;;;;;;5010466;28;20085;-62
2022/08/10 05:26:56;;;;;;;11.13;8.38;;;16.80;99.90;;;;;;5010927;28;20053;-62
2022/08/10 05:29:22;;;;;;;12.60;8.88;;;16.90;99.90;;;;;;5009851;28;20042;-62
2022/08/10 05:31:49;;;;;;;12.80;8.52;;;17.00;99.90;;;;;;5010392;28;20128;-63
2022/08/10 05:34:16;;;;;;;9.10;7.95;;;17.20;99.90;;;;;;5043129;28;20176;-63
2022/08/10 05:36:42;;;;;;;12.50;7.85;;;17.50;99.90;;;;;;5011583;28;20057;-63
2022/08/10 05:39:09;;;;;;;10.70;7.95;;;18.10;99.90;;;;;;5010298;28;20049;-62
2022/08/10 05:41:37;;;;;;;13.23;7.40;;;18.80;99.90;;;;;;5011495;28;20157;-62
2022/08/10 05:44:03;;;;;;;10.63;6.68;;;19.60;99.90;;;;;;5042523;28;20042;-62
2022/08/10 05:46:28;;;;;;;10.07;6.63;;;20.30;99.90;;;;;;5011253;28;20057;-62
2022/08/10 05:48:54;;;;;;;10.32;6.85;;;21.00;99.90;;;;;;5043079;28;20089;-62
2022/08/10 05:51:20;;;;;;;9.98;6.63;;;21.60;99.90;;;;;;5010954;28;20495;-62
2022/08/10 05:53:47;;;;;;;9.30;5.82;;;22.10;99.90;;;;;;5011397;28;20046;-62
2022/08/10 05:56:12;;;;;;;8.07;5.18;;;22.70;99.90;;;;;;5010746;28;20056;-63
2022/08/10 05:58:39;;;;;;;10.18;6.40;;;23.30;99.90;;;;;;5011161;28;20464;-62
2022/08/10 06:01:09;;;;;;;9.82;5.63;;;24.10;99.90;;;;;;5009869;28;20120;-63
2022/08/10 06:03:41;;;;;;;8.05;4.90;;;24.70;99.90;;;;;;5010210;28;20050;-62
2022/08/10 06:06:09;;;;;;;7.28;4.85;;;25.30;99.90;;;;;;5010896;28;20085;-63
2022/08/10 06:08:37;;;;;;;6.47;5.05;;;25.60;99.90;;;;;;5011226;28;20104;-63
2022/08/10 06:11:05;;;;;;;5.10;4.35;;;25.80;99.90;;;;;;5010895;28;20521;-60
2022/08/10 06:16:22;;;;;;;5.65;4.45;;;26.60;99.90;;;;;;5011342;28;20050;-62
2022/08/10 06:18:48;;;;;;;6.78;4.15;;;26.70;99.90;;;;;;5010536;28;20050;-62
2022/08/10 06:21:15;;;;;;;11.05;4.70;;;27.00;99.90;;;;;;5009781;28;20240;-61
2022/08/10 06:23:43;;;;;;;6.35;3.80;;;27.50;99.90;;;;;;5010913;28;20128;-61
2022/08/10 06:26:08;;;;;;;9.55;4.43;;;27.70;99.90;;;;;;5009716;28;20149;-63
2022/08/10 06:28:37;;;;;;;7.40;3.80;;;28.10;99.30;;;;;;5011351;28;20049;-61
2022/08/10 06:31:05;;;;;;;6.20;3.50;;;28.40;99.40;;;;;;5011150;28;20096;-61
2022/08/10 06:33:34;;;;;;;5.75;3.40;;;28.80;99.10;;;;;;5010823;28;20125;-62
2022/08/10 06:36:01;;;;;;;7.85;3.55;;;29.00;97.00;;;;;;5010656;28;20503;-62
2022/08/10 06:38:31;;;;;;;5.13;3.30;;;29.50;97.80;;;;;;5010053;28;20120;-61
2022/08/10 06:41:01;;;;;;;5.93;3.17;;;29.40;96.20;;;;;;5014340;28;20088;-61
2022/08/10 06:43:29;;;;;;;4.90;3.10;;;29.20;96.30;;;;;;5014111;28;20538;-61
2022/08/10 06:46:05;;;;;;;5.43;3.47;;;29.20;95.70;;;;;;5014320;28;20057;-61
2022/08/10 06:48:50;;;;;;;6.32;3.40;;;29.10;95.60;;;;;;5045603;28;20141;-61
2022/08/10 06:51:26;;;;;;;4.00;2.70;;;29.30;96.30;;;;;;5014079;28;20049;-61
2022/08/10 06:53:55;;;;;;;5.30;2.63;;;29.50;96.20;;;;;;5045598;28;20454;-61
2022/08/10 06:56:23;;;;;;;5.85;2.85;;;29.70;95.40;;;;;;5013814;28;20058;-61
2022/08/10 06:58:57;;;;;;;4.25;2.60;;;29.90;95.70;;;;;;5013085;28;20057;-61
2022/08/10 07:01:27;;;;;;;4.82;2.33;;;29.90;95.30;;;;;;5013710;28;20050;-62
2022/08/10 07:04:33;;;;;;;5.10;2.38;;;29.90;94.90;;;;;;5013709;28;20494;-62
2022/08/10 07:07:02;;;;;;;4.63;2.05;;;30.30;94.60;;;;;;5013559;28;20061;-62
2022/08/10 07:09:29;;;;;;;6.22;2.35;;;30.40;93.40;;;;;;5013463;28;20050;-62
2022/08/10 07:11:56;;;;;;;5.00;2.35;;;30.60;93.80;;;;;;5013772;28;20046;-62
2022/08/10 07:14:24;;;;;;;5.18;2.08;;;30.80;93.00;;;;;;5011990;28;20053;-62
2022/08/10 07:16:50;;;;;;;4.32;2.33;;;31.20;93.00;;;;;;5013855;28;20057;-63
2022/08/10 07:19:17;;;;;;;4.22;2.17;;;31.10;92.50;;;;;;5013167;28;20054;-65
2022/08/10 07:21:45;;;;;;;5.30;2.08;;;31.10;92.40;;;;;;5013575;28;20057;-63
2022/08/10 07:24:14;;;;;;;3.35;2.03;;;31.10;92.90;;;;;;5012103;28;20403;-63
2022/08/10 07:26:46;;;;;;;3.95;2.38;;;31.10;91.60;;;;;;5012145;28;20046;-63
2022/08/10 07:29:15;;;;;;;3.63;2.00;;;31.10;91.30;;;;;;5012544;28;20395;-62
2022/08/10 07:31:41;;;;;;;4.05;2.15;;;30.70;91.20;;;;;;5012910;28;20519;-61
2022/08/10 07:34:10;;;;;;;4.70;2.10;;;30.70;90.90;;;;;;5012438;28;20061;-62
2022/08/10 07:36:39;;;;;;;3.92;1.90;;;30.50;91.00;;;;;;5012079;28;20045;-62
2022/08/10 07:39:06;;;;;;;3.63;1.90;;;30.40;91.30;;;;;;5013334;28;20387;-61
2022/08/10 07:41:33;;;;;;;9.98;2.47;;;30.50;92.10;;;;;;5012828;28;20496;-62
2022/08/10 07:44:02;;;;;;;3.35;1.70;;;30.50;92.30;;;;;;5013187;28;20077;-64
2022/08/10 07:46:32;;;;;;;5.07;2.10;;;31.00;91.10;;;;;;5012053;28;20050;-63
2022/08/10 07:49:13;;;;;;;5.10;2.00;;;31.20;91.30;;;;;;5012651;28;20054;-64
2022/08/10 07:51:40;;;;;;;4.07;2.03;;;31.40;90.60;;;;;;5012294;28;20115;-63
2022/08/10 07:54:07;;;;;;;3.63;1.90;;;32.00;91.50;;;;;;5013027;28;20345;-63
2022/08/10 07:56:36;;;;;;;4.38;1.88;;;32.40;91.00;;;;;;5012785;28;20536;-63
2022/08/10 07:59:07;;;;;;;3.28;1.92;;;32.70;91.00;;;;;;5012910;28;20042;-62
2022/08/10 08:01:37;;;;;;;2.83;1.83;;;32.90;89.60;;;;;;5012801;28;20118;-62
2022/08/10 08:04:05;;;;;;;3.15;1.75;;;33.20;90.30;;;;;;5012862;28;20487;-64
2022/08/10 08:06:32;;;;;;;4.90;1.90;;;33.60;90.00;;;;;;5012962;28;20042;-63
2022/08/10 08:08:59;;;;;;;4.78;1.90;;;33.70;89.30;;;;;;5044878;28;20137;-63
2022/08/10 08:11:27;;;;;;;3.25;1.80;;;34.00;88.60;;;;;;5012448;28;20076;-62
2022/08/10 08:13:55;;;;;;;4.60;1.80;;;34.00;86.90;;;;;;5012750;28;20160;-63
2022/08/10 08:16:22;;;;;;;3.47;1.90;;;34.30;86.60;;;;;;5012523;28;20042;-63
2022/08/10 08:18:51;;;;;;;3.65;1.73;;;34.40;85.90;;;;;;5009259;28;20080;-62
2022/08/10 08:21:18;;;;;;;4.10;1.80;;;34.80;85.50;;;;;;5026601;28;20045;-63
2022/08/10 08:23:46;;;;;;;4.70;2.10;;;34.70;85.00;;;;;;5011908;28;20041;-62
2022/08/10 08:26:13;;;;;;;5.10;1.77;;;34.60;85.20;;;;;;5012462;28;20528;-63
2022/08/10 08:28:40;;;;;;;3.65;1.67;;;34.90;83.80;;;;;;5011770;28;20050;-62
2022/08/10 08:31:07;;;;;;;4.65;1.60;;;34.50;84.10;;;;;;4994764;28;20077;-63
2022/08/10 08:33:34;;;;;;;7.93;2.25;;;35.10;84.70;;;;;;5011629;28;20050;-62
2022/08/10 08:36:01;;;;;;;4.68;1.85;;;35.20;84.40;;;;;;5012225;28;20396;-62
2022/08/10 08:38:28;;;;;;;5.82;2.10;;;34.80;83.90;;;;;;5011650;28;20050;-64
2022/08/10 08:41:18;;;;;;;4.05;1.95;;;35.00;84.40;;;;;;5012049;28;20050;-64
2022/08/10 08:44:02;;;;;;;3.88;1.80;;;34.80;84.20;;;;;;5010344;28;20054;-63
2022/08/10 08:47:09;;;;;;;5.15;2.20;;;34.80;82.80;;;;;;5012056;28;20519;-63
2022/08/10 08:50:06;;;;;;;4.43;2.10;;;34.80;82.00;;;;;;5011444;28;20041;-62
2022/08/10 08:52:35;;;;;;;4.40;2.05;;;34.70;83.00;;;;;;5011561;28;20396;-61
2022/08/10 08:55:19;;;;;;;4.28;2.00;;;34.80;81.80;;;;;;5011917;28;20053;-62
2022/08/10 08:57:53;;;;;;;4.15;1.80;;;34.80;82.20;;;;;;5011521;28;20038;-63
2022/08/10 09:00:44;;;;;;;4.70;2.08;;;35.00;82.20;;;;;;5009869;28;20046;-63
2022/08/10 09:03:39;;;;;;;7.40;2.10;;;34.90;80.80;;;;;;5008789;28;20053;-62
2022/08/10 09:06:11;;;;;;;5.82;1.92;;;34.90;81.70;;;;;;5010821;28;20053;-62
2022/08/10 09:09:14;;;;;;;3.90;2.00;;;34.90;80.60;;;;;;5010523;28;20046;-64
2022/08/10 09:12:01;;;;;;;5.43;2.08;;;34.70;82.00;;;;;;5010197;28;20781;-62
2022/08/10 09:14:43;;;;;;;5.70;1.90;;;34.40;81.00;;;;;;5010326;28;20053;-63
2022/08/10 09:17:34;;;;;;;5.55;1.70;;;34.70;80.70;;;;;;5010926;28;20046;-66
2022/08/10 09:20:23;;;;;;;6.82;1.80;;;34.90;80.70;;;;;;5010758;28;20056;-65
2022/08/10 09:23:00;;;;;;;3.42;2.00;;;34.90;80.70;;;;;;5009452;28;20060;-62
2022/08/10 09:25:34;;;;;;;5.82;1.70;;;34.90;80.20;;;;;;5010552;28;20096;-64
2022/08/10 09:28:10;;;;;;;7.32;1.65;;;35.10;80.10;;;;;;5011057;28;20056;-62
2022/08/10 09:30:58;;;;;;;6.25;2.33;;;35.20;79.70;;;;;;5010505;28;20124;-63
2022/08/10 09:33:36;;;;;;;4.22;1.80;;;35.40;79.60;;;;;;5010384;28;20045;-61
2022/08/10 09:36:09;;;;;;;5.53;2.10;;;35.20;79.20;;;;;;5010021;28;20120;-63
2022/08/10 09:39:02;;;;;;;5.78;2.03;;;35.30;78.40;;;;;;5009951;28;20571;-63
2022/08/10 09:42:05;;;;;;;3.10;1.90;;;34.70;78.70;;;;;;5010720;28;20056;-63
2022/08/10 09:44:30;;;;;;;;;;;34.30;79.90;;;;;;5010876;28;20056;-63
2022/08/10 09:47:14;;;;;;;3.85;1.90;;;34.50;79.40;;;;;;5009873;28;19922;-63
2022/08/10 09:50:05;;;;;;;3.90;1.77;;;33.80;79.20;;;;;;5009680;28;20064;-62
2022/08/10 09:52:42;;;;;;;3.72;1.85;;;32.60;79.70;;;;;;5041743;28;20054;-61
2022/08/10 09:55:52;;;;;;;4.78;1.60;;;32.20;80.40;;;;;;5010406;28;20403;-62
2022/08/10 09:58:27;;;;;;;6.30;2.00;;;31.80;82.30;;;;;;5009351;28;20408;-63
2022/08/10 10:01:01;;;;;;;5.18;2.25;;;31.60;81.70;;;;;;5009751;28;20464;-62
2022/08/10 10:03:45;;;;;;;7.43;2.33;;;31.40;81.70;;;;;;5010738;28;20056;-61
2022/08/10 10:06:20;;;;;;;6.80;2.05;;;31.00;82.90;;;;;;5008726;28;20519;-61
2022/08/10 10:09:09;;;;;;;3.22;1.83;;;30.40;83.40;;;;;;5009813;28;20054;-61
2022/08/10 10:12:05;;;;;;;3.75;1.90;;;30.30;83.00;;;;;;5010145;28;20404;-61
2022/08/10 10:17:53;;;;;;;4.60;2.05;;;30.20;83.90;;;;;;5012740;28;20089;-63
2022/08/10 10:20:30;;;;;;;6.60;2.05;;;29.70;84.30;;;;;;5013716;28;20042;-63
2022/08/10 10:23:38;;;;;;;7.43;2.15;;;29.60;84.00;;;;;;5013128;28;20475;-63
2022/08/10 10:26:28;;;;;;;6.60;2.20;;;29.50;84.00;;;;;;5012297;28;20101;-62
2022/08/10 10:28:58;;;;;;;7.65;2.35;;;29.50;83.90;;;;;;5044655;28;20449;-62
2022/08/10 10:31:36;;;;;;;5.88;1.92;;;29.20;84.90;;;;;;5013821;28;20140;-62
2022/08/10 10:34:05;;;;;;;4.47;2.10;;;29.20;85.30;;;;;;5011980;28;20050;-64
2022/08/10 10:36:32;;;;;;;3.40;1.63;;;29.20;85.60;;;;;;5012331;28;20053;-62
2022/08/10 10:39:00;;;;;;;3.60;1.60;;;29.00;85.30;;;;;;5012678;28;20133;-62
2022/08/10 10:41:47;;;;;;;6.88;1.77;;;29.00;84.00;;;;;;5013158;28;20085;-62
2022/08/10 10:44:21;;;;;;;3.22;1.65;;;29.00;83.70;;;;;;5013570;28;20132;-61
2022/08/10 10:46:53;;;;;;;4.97;1.40;;;29.00;84.10;;;;;;5012766;28;20057;-63
2022/08/10 10:49:49;;;;;;;3.25;1.42;;;29.20;82.20;;;;;;5012380;28;20491;-62
2022/08/10 10:52:48;;;;;;;4.03;1.80;;;29.30;82.60;;;;;;5012417;28;20058;-62
2022/08/10 10:55:22;;;;;;;3.20;1.40;;;29.40;82.70;;;;;;5012823;28;20105;-62
2022/08/10 10:58:17;;;;;;;4.63;1.80;;;29.30;82.50;;;;;;5013807;28;20069;-63
2022/08/10 11:01:00;;;;;;;2.00;1.27;;;29.10;82.60;;;;;;5014168;28;20093;-61
2022/08/10 11:03:35;;;;;;;5.57;1.50;;;29.20;83.10;;;;;;5014051;28;20075;-61
2022/08/10 11:06:26;;;;;;;6.43;1.80;;;29.30;83.70;;;;;;5013102;28;20129;-61
2022/08/10 11:09:01;;;;;;;6.22;1.80;;;29.10;84.60;;;;;;5013350;28;20062;-62
2022/08/10 11:11:50;;;;;;;2.35;1.55;;;29.00;85.10;;;;;;5014076;28;20046;-62
2022/08/10 11:14:39;;;;;;;2.67;1.33;;;29.00;83.80;;;;;;5045719;28;20115;-62
2022/08/10 11:17:15;;;;;;;5.15;1.60;;;28.80;84.30;;;;;;5012620;28;20076;-63
2022/08/10 11:19:50;;;;;;;2.58;1.67;;;28.80;83.50;;;;;;5013623;28;20077;-62
2022/08/10 11:22:33;;;;;;;5.78;1.48;;;28.90;83.90;;;;;;5012457;28;20400;-62
2022/08/10 11:25:10;;;;;;;4.32;1.45;;;28.90;84.20;;;;;;5010875;28;20468;-62
2022/08/10 11:27:57;;;;;;;2.67;1.38;;;29.00;82.90;;;;;;5013291;28;20053;-62
2022/08/10 11:30:51;;;;;;;3.03;1.40;;;28.90;83.10;;;;;;5012670;28;20061;-62
2022/08/10 11:33:17;;;;;;;;;;;28.80;84.10;;;;;;5012816;28;20112;-62
2022/08/10 11:36:05;;;;;;;2.13;1.30;;;28.80;83.90;;;;;;5012517;28;19925;-62
2022/08/10 11:38:47;;;;;;;4.03;1.60;;;28.90;83.60;;;;;;5013278;28;20140;-62
2022/08/10 11:41:28;;;;;;;3.40;1.63;;;28.80;83.40;;;;;;5013234;28;20272;-62
2022/08/10 11:44:19;;;;;;;4.85;1.52;;;28.80;83.30;;;;;;5010295;28;20052;-65
2022/08/10 11:46:58;;;;;;;1.90;1.20;;;28.80;82.90;;;;;;5011951;28;20089;-62
2022/08/10 11:49:55;;;;;;;6.28;1.48;;;28.80;82.40;;;;;;5009596;28;20376;-62
2022/08/10 11:52:57;;;;;;;6.72;1.58;;;28.60;82.50;;;;;;5012064;28;20443;-62
2022/08/10 11:55:26;;;;;;;5.43;1.45;;;28.60;82.60;;;;;;5010742;28;20407;-62
2022/08/10 11:57:57;;;;;;;3.08;1.30;;;28.50;82.30;;;;;;5012170;28;20057;-62
2022/08/10 12:00:24;;;;;;;2.08;1.30;;;28.50;82.30;;;;;;5011557;28;20057;-62
2022/08/10 12:02:58;;;;;;;2.47;1.23;;;28.40;81.70;;;;;;5011991;28;20050;-61
2022/08/10 12:05:38;;;;;;;4.22;1.48;;;28.40;81.80;;;;;;5011661;28;20093;-61
2022/08/10 12:08:04;;;;;;;1.92;1.33;;;28.40;81.60;;;;;;5011670;28;20046;-61
2022/08/10 12:10:32;;;;;;;3.60;1.50;;;28.50;82.50;;;;;;5010543;28;20061;-62
2022/08/10 12:13:27;;;;;;;2.53;1.30;;;28.60;82.40;;;;;;5005303;28;20157;-62
2022/08/10 12:16:03;;;;;;;3.30;1.58;;;28.70;82.60;;;;;;5038063;28;20049;-62
2022/08/10 12:18:45;;;;;;;2.72;1.50;;;28.60;82.30;;;;;;5008348;28;20042;-62
2022/08/10 12:21:29;;;;;;;4.85;1.30;;;28.80;82.60;;;;;;5009762;28;20057;-63
2022/08/10 12:24:13;;;;;;;3.60;1.60;;;28.90;82.80;;;;;;5009364;28;20061;-64
2022/08/10 12:27:02;;;;;;;3.95;1.40;;;28.80;82.70;;;;;;5007336;28;20042;-63
2022/08/10 12:29:46;;;;;;;2.92;1.50;;;28.70;82.80;;;;;;5010749;28;20049;-62
2022/08/10 12:32:23;;;;;;;3.60;1.50;;;28.70;82.70;;;;;;5010996;28;20152;-63
2022/08/10 12:34:55;;;;;;;3.17;1.70;;;28.60;82.90;;;;;;5009501;28;20108;-62
2022/08/10 12:37:55;;;;;;;4.22;1.42;;;28.50;83.40;;;;;;5010494;28;20521;-62
2022/08/10 12:40:24;;;;;;;2.63;1.40;;;28.50;83.60;;;;;;5009253;28;20045;-62
2022/08/10 12:43:19;;;;;;;3.83;1.60;;;28.50;83.70;;;;;;5010520;28;20085;-62
2022/08/10 12:46:08;;;;;;;3.90;1.50;;;28.50;84.20;;;;;;5007888;28;20057;-66
2022/08/10 12:48:59;;;;;;;3.00;1.40;;;28.50;83.80;;;;;;5007582;28;20104;-62
2022/08/10 12:51:29;;;;;;;2.55;1.50;;;28.40;83.70;;;;;;5043318;28;20378;-61
2022/08/10 12:54:02;;;;;;;2.50;1.55;;;28.30;83.80;;;;;;5012159;28;20045;-62
2022/08/10 12:56:35;;;;;;;1.83;1.30;;;28.20;83.90;;;;;;5010958;28;20038;-62
2022/08/10 12:59:04;;;;;;;3.20;1.50;;;28.30;83.00;;;;;;5005535;28;20052;-63
2022/08/10 13:01:33;;;;;;;2.83;1.30;;;28.20;83.80;;;;;;5025768;28;20049;-62
2022/08/10 13:04:06;;;;;;;5.63;1.50;;;28.10;84.00;;;;;;5010496;28;20046;-63
2022/08/10 13:06:34;;;;;;;3.80;1.50;;;28.20;84.20;;;;;;5010376;28;20046;-63
2022/08/10 13:09:13;;;;;;;1.70;1.50;;;28.20;84.20;;;;;;5009097;28;20067;-63
2022/08/10 13:12:02;;;;;;;3.17;1.55;;;28.10;83.90;;;;;;5009040;28;20081;-62
2022/08/10 13:14:57;;;;;;;4.20;1.70;;;28.00;84.00;;;;;;5008897;28;20062;-60
2022/08/10 13:17:33;;;;;;;2.20;1.35;;;28.00;84.30;;;;;;5008509;28;20305;-62
2022/08/10 13:20:05;;;;;;;3.30;1.80;;;28.00;84.00;;;;;;5009885;28;20050;-63
2022/08/10 13:22:36;;;;;;;4.10;2.17;;;28.10;84.10;;;;;;5008886;28;20042;-62
2022/08/10 13:25:05;;;;;;;5.85;1.58;;;28.10;84.70;;;;;;5009146;28;20054;-62